Terminal Aerodrome Forecast
Issued by NWS Wilmington, OH

Current Version | Previous Version | Graphics & Text | Print | Product List | Glossary On
Versions: 1 2 3 4 5 6 7 8 9 10 11 12 13 14 15 16 17 18 19 20 21 22 23 24 25 26 27 28
000
FTUS41 KILN 270800 AAC
TAFCVG
TAF AMD
KCVG 270857Z 2709/2812 28005KT P6SM -SN OVC025
     FM271100 31005KT P6SM SCT035
     FM280000 04004KT P6SM FEW035 BKN150=

USA.gov is the U.S. government's official web portal to all federal, state and local government web resources and services.